Lemoore Naval Air Station (Reeves Field) Airport
KNLC : rendu visible

Aérodrome :











RETROUVEZ-NOUS SUR...

 
LOGIN :

S'inscrire | Disclaimer

   EN    FR    IT 

 









Légende :    VFR   VFR Marginal   IFR   IFR Intensif   IFR Très Intensif
Visi : 
Plafond : 
>= 8 km
>= 3000ft
5 à 8 km
1000 à 3000 ft
1500m à 5 km
500 à 1000 ft
800 à 1500m
200 à 500 ft
< 800m
< 200 ft
Symboles :   Orages  Brouillard  Fortes neiges  Fortes précipitations  Vent > 20 kt






- Altitude de l'aérodrome : 232 ft


KNLC - Lemoore Naval Air Station (Reeves Field)

DERNIER METAR :
  • 190800Z AUTO 07003KT 3/4SM BR OVC003 06/04 A3032 RMK AO2 T00560044 RVRNO

METARs EXPIRÉS :
  • 190747Z AUTO 03003KT 2 1/2SM BR OVC002 06/05 A3033 RMK AO2 T00560050
  • 190720Z AUTO 03005KT 1/2SM FG VV002 06/05 A3034 RMK AO2 T00560050 RVRNO
  • 190704Z AUTO 02004KT 1SM BR OVC002 06/05 A3035 RMK AO2 T00560050 RVRNO
  • 190656Z AUTO 03005KT 1 1/2SM BR OVC002 06/05 A3034 RMK AO2 SLP277 T00560050
  • 190645Z AUTO 36005KT 2SM BR OVC002 06/05 A3035 RMK AO2 T00560050
  • 190628Z AUTO 36006KT 1SM BR VV002 06/05 A3035 RMK AO2 T00560050 RVRNO
  • 190556Z AUTO 32006KT 1/2SM FG VV002 06/05 A3035 RMK AO2 SLP278 T00560050 10083 20028 50008 RVRNO
  • 190543Z AUTO 30003KT 1/4SM FG VV002 06/06 A3034 RMK AO2 T00560056 RVRNO

TAF TAF KNLC
Valide du 19 à 07h jusqu'au 20 à 07h UTC


1907/2007 35006KT 3200 BR OVC002 QNH3022INS
TEMPO 1907/1913 VRB06KT 0800 FG VV002
FM191300 VRB06KT 1600 BR OVC002 QNH3016INS
TEMPO 1913/1919 VRB06KT 0400 FG VV002
BECMG 1919/1920 VRB06KT 8000 HZ SCT005 BKN200 QNH3010INS
FM200500 VRB06KT 3200 BR BKN005 OVC200 QNH3012INS AUTOMATED SENSOR METWATCH 1907 TIL 1916 04/1912Z T11/1922Z FS30164



MET'MAP, la Météo Aéronautique d'un coup d'oeil ! - Copyright ORBIFLY Décembre 2007 - Disclaimer

ORBIFLY MET'MAP TEAM :

Programmation & Développement : Alexandra Zaïnal
Sur une idée originale de : Baudouin d'Aumeries
Assistance à la programmation : Marc-Olivier Méhu
Soutien technique & logistique : Manuel Goepfert

Contact : metmap@orbifly.com




SOURCES & CREDITS :

   NOAA       Earth
Advisory